Time;durP1;ratioP1;P1;durP2;ratioP2;P2;SDS_P1;SDS_P2;PMS_P1;PMS_P2;Temp;Humidity;BMP_temperature;BMP_pressure;BME280_temperature;BME280_humidity;BME280_pressure;Samples;Min_cycle;Max_cycle;Signal;HPM_P1;HPM_P2
2023/03/12 00:01:20;;;;;;;;;;;1.71;5.18;;;;;;2669550;76;20426;-90
2023/03/12 00:04:48;;;;;;;;;;;1.78;5.33;;;;;;2669838;76;20452;-90
2023/03/12 00:08:16;;;;;;;;;;;1.80;5.50;;;;;;2667342;76;20975;-89
2023/03/12 00:11:44;;;;;;;;;;;1.90;5.60;;;;;;2668896;76;20936;-89
2023/03/12 00:15:12;;;;;;;;;;;1.91;5.57;;;;;;2668221;76;21217;-89
2023/03/12 00:18:40;;;;;;;;;;;1.85;5.44;;;;;;2669101;76;20889;-89
2023/03/12 00:22:08;;;;;;;;;;;1.81;5.44;;;;;;2669352;76;20442;-89
2023/03/12 00:25:36;;;;;;;;;;;1.82;5.55;;;;;;2669240;76;20440;-90
2023/03/12 00:29:04;;;;;;;;;;;1.65;5.00;;;;;;2668889;76;20455;-87
2023/03/12 00:32:32;;;;;;;;;;;1.37;4.12;;;;;;2668785;76;20423;-89
2023/03/12 00:36:00;;;;;;;;;;;1.11;3.50;;;;;;2668698;76;20460;-89
2023/03/12 00:39:28;;;;;;;;;;;0.86;2.91;;;;;;2670318;76;20308;-90
2023/03/12 00:42:57;;;;;;;;;;;0.67;2.77;;;;;;2669158;76;20440;-89
2023/03/12 00:46:25;;;;;;;;;;;0.54;3.05;;;;;;2669991;76;20458;-90
2023/03/12 00:49:53;;;;;;;;;;;0.49;3.58;;;;;;2669932;76;20325;-89
2023/03/12 00:53:21;;;;;;;;;;;0.61;4.28;;;;;;2670207;76;20435;-89
2023/03/12 00:56:49;;;;;;;;;;;0.67;4.63;;;;;;2669504;76;20308;-90
2023/03/12 01:00:17;;;;;;;;;;;0.66;4.72;;;;;;2669221;76;20456;-89
2023/03/12 01:03:45;;;;;;;;;;;0.72;4.93;;;;;;2669723;76;20468;-89
2023/03/12 01:07:13;;;;;;;;;;;0.79;5.18;;;;;;2670258;76;20405;-89
2023/03/12 01:10:41;;;;;;;;;;;0.81;5.06;;;;;;2671009;76;20408;-90
2023/03/12 01:14:09;;;;;;;;;;;0.73;4.50;;;;;;2669658;76;20324;-89
2023/03/12 01:17:37;;;;;;;;;;;0.63;4.44;;;;;;2669223;76;21377;-90
2023/03/12 01:21:05;;;;;;;;;;;0.71;4.84;;;;;;2669763;76;20900;-89
2023/03/12 01:24:33;;;;;;;;;;;0.90;5.54;;;;;;2670303;76;20455;-90
2023/03/12 01:28:02;;;;;;;;;;;1.10;6.04;;;;;;2668670;76;20885;-89
2023/03/12 01:31:30;;;;;;;;;;;1.31;6.31;;;;;;2669008;76;20769;-88
2023/03/12 01:34:59;;;;;;;;;;;1.45;6.34;;;;;;2668739;76;20435;-89
2023/03/12 01:38:27;;;;;;;;;;;1.54;6.41;;;;;;2668552;76;20496;-89
2023/03/12 01:41:55;;;;;;;;;;;1.68;6.58;;;;;;2668959;76;20461;-90
2023/03/12 01:45:23;;;;;;;;;;;1.67;6.31;;;;;;2668838;76;20350;-88
2023/03/12 01:48:51;;;;;;;;;;;1.61;6.13;;;;;;2669082;76;20466;-89
2023/03/12 01:52:19;;;;;;;;;;;1.39;5.44;;;;;;2670083;76;20349;-89
2023/03/12 01:55:47;;;;;;;;;;;1.14;4.69;;;;;;2668951;76;20320;-89
2023/03/12 01:59:15;;;;;;;;;;;0.94;4.35;;;;;;2670187;76;20420;-89
2023/03/12 02:02:43;;;;;;;;;;;0.76;4.04;;;;;;2667776;76;20421;-89
2023/03/12 02:06:12;;;;;;;;;;;0.65;4.25;;;;;;2668045;76;20326;-92
2023/03/12 02:09:40;;;;;;;;;;;0.42;5.09;;;;;;2669374;76;21269;-89
2023/03/12 02:13:08;;;;;;;;;;;0.67;5.93;;;;;;2669763;76;20323;-91
2023/03/12 02:16:36;;;;;;;;;;;0.87;6.09;;;;;;2669959;76;20407;-91
2023/03/12 02:20:10;;;;;;;;;;;0.96;5.99;;;;;;2669241;76;20439;-91
2023/03/12 02:23:38;;;;;;;;;;;0.93;5.61;;;;;;2668225;76;20895;-92
2023/03/12 02:27:06;;;;;;;;;;;0.63;5.00;;;;;;2670145;76;20448;-92
2023/03/12 02:30:34;;;;;;;;;;;0.44;5.01;;;;;;2669598;76;20469;-92
2023/03/12 02:34:02;;;;;;;;;;;0.42;4.73;;;;;;2670030;76;20467;-91
2023/03/12 02:37:30;;;;;;;;;;;0.32;3.96;;;;;;2668505;76;20465;-91
2023/03/12 02:40:58;;;;;;;;;;;0.24;3.65;;;;;;2668866;76;20433;-92
2023/03/12 02:44:27;;;;;;;;;;;0.23;4.20;;;;;;2668849;76;20434;-90
2023/03/12 02:47:55;;;;;;;;;;;0.29;4.98;;;;;;2668512;76;20408;-91
2023/03/12 02:51:23;;;;;;;;;;;0.33;4.99;;;;;;2668981;76;20346;-91
2023/03/12 02:54:51;;;;;;;;;;;0.28;4.64;;;;;;2669128;76;20429;-91
2023/03/12 02:58:19;;;;;;;;;;;0.23;4.22;;;;;;2669217;76;20914;-92
2023/03/12 03:01:47;;;;;;;;;;;0.15;3.97;;;;;;2668332;76;20435;-91
2023/03/12 03:05:15;;;;;;;;;;;0.08;3.93;;;;;;2669051;76;20950;-91
2023/03/12 03:08:44;;;;;;;;;;;0.02;4.45;;;;;;2668894;76;20509;-91
2023/03/12 03:12:12;;;;;;;;;;;0.12;5.14;;;;;;2668318;76;20978;-91
2023/03/12 03:15:40;;;;;;;;;;;0.23;5.38;;;;;;2669486;76;20429;-91
2023/03/12 03:19:09;;;;;;;;;;;0.33;5.49;;;;;;2668931;76;20407;-90
2023/03/12 03:22:37;;;;;;;;;;;0.45;5.76;;;;;;2668649;76;20531;-91
2023/03/12 03:26:05;;;;;;;;;;;0.58;5.94;;;;;;2669037;76;20416;-92
2023/03/12 03:29:33;;;;;;;;;;;0.60;5.91;;;;;;2669333;76;20987;-91
2023/03/12 03:33:01;;;;;;;;;;;0.72;6.27;;;;;;2671403;76;20417;-90
2023/03/12 03:36:29;;;;;;;;;;;0.76;6.15;;;;;;2670813;76;20489;-91
2023/03/12 03:39:57;;;;;;;;;;;0.83;6.29;;;;;;2668811;76;20467;-91
2023/03/12 03:43:25;;;;;;;;;;;0.92;6.57;;;;;;2669592;76;20414;-91
2023/03/12 03:46:54;;;;;;;;;;;1.02;6.56;;;;;;2668574;76;20893;-91
2023/03/12 03:50:22;;;;;;;;;;;1.02;6.43;;;;;;2669140;76;20428;-90
2023/03/12 03:53:50;;;;;;;;;;;1.06;6.80;;;;;;2669411;76;20402;-90
2023/03/12 03:57:18;;;;;;;;;;;1.11;6.82;;;;;;2670361;76;21402;-91
2023/03/12 04:00:46;;;;;;;;;;;1.21;7.02;;;;;;2670590;76;20431;-91
2023/03/12 04:04:15;;;;;;;;;;;1.24;6.86;;;;;;2670188;76;20928;-91
2023/03/12 04:07:43;;;;;;;;;;;1.28;6.99;;;;;;2669652;76;20912;-90
2023/03/12 04:11:11;;;;;;;;;;;1.28;6.92;;;;;;2668374;76;20538;-89
2023/03/12 04:14:39;;;;;;;;;;;1.33;6.95;;;;;;2670555;76;20417;-90
2023/03/12 04:18:07;;;;;;;;;;;1.33;6.96;;;;;;2670269;76;20415;-90
2023/03/12 04:21:38;;;;;;;;;;;1.35;7.17;;;;;;2669679;76;20450;-91
2023/03/12 04:25:10;;;;;;;;;;;1.40;7.26;;;;;;2669346;76;20979;-90
2023/03/12 04:28:38;;;;;;;;;;;1.46;7.47;;;;;;2670039;76;20428;-90
2023/03/12 04:32:06;;;;;;;;;;;1.55;7.57;;;;;;2669246;76;20545;-90
2023/03/12 04:35:34;;;;;;;;;;;1.58;7.58;;;;;;2669522;76;20468;-90
2023/03/12 04:39:06;;;;;;;;;;;1.60;7.64;;;;;;2669387;76;20422;-90
2023/03/12 04:42:32;;;;;;;;;;;1.62;7.73;;;;;;2669621;76;20464;-90
2023/03/12 04:46:00;;;;;;;;;;;1.65;7.82;;;;;;2670595;76;20318;-90
2023/03/12 04:49:28;;;;;;;;;;;1.67;7.86;;;;;;2669845;76;20430;-90
2023/03/12 04:52:56;;;;;;;;;;;1.63;7.89;;;;;;2668916;76;20774;-92
2023/03/12 04:56:24;;;;;;;;;;;1.68;7.83;;;;;;2669862;76;20463;-92
2023/03/12 04:59:52;;;;;;;;;;;1.64;7.74;;;;;;2668347;76;20463;-91
2023/03/12 05:03:21;;;;;;;;;;;1.63;7.74;;;;;;2668880;76;20403;-91
2023/03/12 05:06:49;;;;;;;;;;;1.65;7.85;;;;;;2669044;76;20442;-90
2023/03/12 05:10:22;;;;;;;;;;;1.67;7.94;;;;;;2669371;76;20655;-91
2023/03/12 05:13:47;;;;;;;;;;;1.73;8.03;;;;;;2672177;76;20518;-92
2023/03/12 05:17:15;;;;;;;;;;;1.75;8.04;;;;;;2671835;76;20474;-91
2023/03/12 05:20:43;;;;;;;;;;;1.77;8.13;;;;;;2670228;76;21181;-90
2023/03/12 05:24:11;;;;;;;;;;;1.80;8.29;;;;;;2669273;76;20476;-91
2023/03/12 05:27:39;;;;;;;;;;;1.84;8.22;;;;;;2669980;76;20429;-90
2023/03/12 05:31:08;;;;;;;;;;;1.75;7.93;;;;;;2670381;76;20760;-91
2023/03/12 05:34:36;;;;;;;;;;;1.73;7.84;;;;;;2669625;76;20319;-92
2023/03/12 05:38:04;;;;;;;;;;;1.70;7.75;;;;;;2668990;76;20807;-91
2023/03/12 05:41:32;;;;;;;;;;;1.67;7.70;;;;;;2670206;76;20432;-90
2023/03/12 05:45:00;;;;;;;;;;;1.68;7.91;;;;;;2668791;76;20430;-91
2023/03/12 05:48:31;;;;;;;;;;;1.78;8.27;;;;;;2669487;76;21167;-90
2023/03/12 05:51:59;;;;;;;;;;;1.91;8.38;;;;;;2669368;76;20416;-90
2023/03/12 05:55:27;;;;;;;;;;;2.06;8.63;;;;;;2670276;76;20909;-91
2023/03/12 05:58:56;;;;;;;;;;;2.20;8.66;;;;;;2669735;76;20876;-91
2023/03/12 06:02:24;;;;;;;;;;;2.36;8.70;;;;;;2669853;76;20972;-91
2023/03/12 06:05:54;;;;;;;;;;;2.57;8.85;;;;;;2669648;76;20440;-91
2023/03/12 06:09:22;;;;;;;;;;;2.73;8.95;;;;;;2669309;76;20467;-91
2023/03/12 06:12:50;;;;;;;;;;;2.87;9.07;;;;;;2669244;76;20902;-91
2023/03/12 06:16:18;;;;;;;;;;;3.04;9.15;;;;;;2670604;76;20899;-91
2023/03/12 06:19:47;;;;;;;;;;;3.20;9.24;;;;;;2669560;76;20463;-90
2023/03/12 06:23:15;;;;;;;;;;;3.39;9.40;;;;;;2670113;76;20876;-90
2023/03/12 06:26:43;;;;;;;;;;;3.57;9.43;;;;;;2670020;76;20474;-92
2023/03/12 06:30:11;;;;;;;;;;;3.75;9.62;;;;;;2669954;76;20438;-91
2023/03/12 06:33:39;;;;;;;;;;;3.91;9.69;;;;;;2668325;76;21187;-92
2023/03/12 06:37:08;;;;;;;;;;;4.05;9.65;;;;;;2666086;76;20481;-90
2023/03/12 06:40:36;;;;;;;;;;;4.09;9.66;;;;;;2669057;76;20417;-91
2023/03/12 06:44:05;;;;;;;;;;;4.26;9.91;;;;;;2669729;76;20435;-91
2023/03/12 06:47:33;;;;;;;;;;;4.47;10.04;;;;;;2668967;76;20304;-92
2023/03/12 06:51:01;;;;;;;;;;;4.54;9.95;;;;;;2670082;76;20346;-91
2023/03/12 06:54:29;;;;;;;;;;;4.45;9.78;;;;;;2669896;76;20436;-91
2023/03/12 06:57:59;;;;;;;;;;;4.33;9.99;;;;;;2670210;76;20784;-91
2023/03/12 07:01:27;;;;;;;;;;;4.47;10.28;;;;;;2669914;76;20434;-91
2023/03/12 07:04:55;;;;;;;;;;;4.65;10.48;;;;;;2668660;76;20338;-91
2023/03/12 07:08:29;;;;;;;;;;;4.98;10.52;;;;;;2668702;76;20461;-91
2023/03/12 07:11:56;;;;;;;;;;;5.31;10.38;;;;;;2668052;76;20468;-92
2023/03/12 07:15:27;;;;;;;;;;;5.57;10.08;;;;;;2668445;76;20413;-89
2023/03/12 07:18:54;;;;;;;;;;;5.78;9.73;;;;;;2667027;76;21055;-90
2023/03/12 07:22:41;;;;;;;;;;;5.87;9.53;;;;;;2668579;76;20432;-91
2023/03/12 07:26:01;;;;;;;;;;;5.96;9.37;;;;;;2667196;76;20310;-91
2023/03/12 07:29:26;;;;;;;;;;;6.08;9.17;;;;;;2667519;76;20400;-92
2023/03/12 07:32:54;;;;;;;;;;;6.42;9.06;;;;;;2668880;76;20446;-92
2023/03/12 07:36:22;;;;;;;;;;;6.65;8.07;;;;;;2668550;76;20406;-92
2023/03/12 07:39:53;;;;;;;;;;;6.81;8.33;;;;;;2669550;76;21160;-91
2023/03/12 07:43:21;;;;;;;;;;;7.03;8.42;;;;;;2668584;76;20781;-93
2023/03/12 07:46:49;;;;;;;;;;;7.22;8.71;;;;;;2669183;76;20443;-92
2023/03/12 07:50:17;;;;;;;;;;;7.46;8.75;;;;;;2670865;76;21232;-92
2023/03/12 07:53:45;;;;;;;;;;;7.87;8.66;;;;;;2669868;76;20325;-91
2023/03/12 07:57:15;;;;;;;;;;;8.13;8.39;;;;;;2669778;76;20473;-92
2023/03/12 08:00:44;;;;;;;;;;;8.13;8.27;;;;;;2670589;76;20424;-91
2023/03/12 08:04:12;;;;;;;;;;;8.11;8.56;;;;;;2670346;76;20434;-91
2023/03/12 08:07:40;;;;;;;;;;;8.22;8.64;;;;;;2670534;76;20422;-90
2023/03/12 08:11:08;;;;;;;;;;;8.42;8.32;;;;;;2670491;76;20432;-91
2023/03/12 08:14:36;;;;;;;;;;;8.62;8.96;;;;;;2670024;76;20437;-91
2023/03/12 08:18:04;;;;;;;;;;;8.96;9.30;;;;;;2670154;76;20326;-91
2023/03/12 08:21:35;;;;;;;;;;;8.86;9.25;;;;;;2670280;76;20415;-91
2023/03/12 08:25:03;;;;;;;;;;;8.68;10.15;;;;;;2669991;76;20431;-91
2023/03/12 08:28:31;;;;;;;;;;;8.73;10.08;;;;;;2669941;76;20420;-92
2023/03/12 08:31:59;;;;;;;;;;;8.87;10.11;;;;;;2669336;76;20420;-92
2023/03/12 08:35:27;;;;;;;;;;;9.19;11.07;;;;;;2669694;76;20471;-91
2023/03/12 08:38:55;;;;;;;;;;;9.34;11.39;;;;;;2670004;76;20430;-92
2023/03/12 08:42:23;;;;;;;;;;;9.29;11.01;;;;;;2669963;76;20423;-91
2023/03/12 08:45:52;;;;;;;;;;;9.37;11.55;;;;;;2667894;76;20991;-91
2023/03/12 08:49:20;;;;;;;;;;;9.41;11.99;;;;;;2668862;76;21166;-92
2023/03/12 08:52:48;;;;;;;;;;;9.85;11.95;;;;;;2670490;76;20465;-91
2023/03/12 08:56:16;;;;;;;;;;;10.49;11.51;;;;;;2670560;76;20311;-91
2023/03/12 08:59:44;;;;;;;;;;;10.68;11.52;;;;;;2670540;76;20420;-91
2023/03/12 09:03:13;;;;;;;;;;;11.18;11.80;;;;;;2669644;76;20457;-91
2023/03/12 09:06:41;;;;;;;;;;;11.20;10.83;;;;;;2670129;76;20409;-89
2023/03/12 09:10:10;;;;;;;;;;;10.98;11.44;;;;;;2671380;76;20480;-90
2023/03/12 09:13:38;;;;;;;;;;;10.58;12.18;;;;;;2670460;76;20910;-90
2023/03/12 09:17:06;;;;;;;;;;;10.23;12.04;;;;;;2671071;76;21129;-90
2023/03/12 09:20:34;;;;;;;;;;;10.14;12.12;;;;;;2669721;76;20449;-90
2023/03/12 09:24:02;;;;;;;;;;;10.16;11.20;;;;;;2671033;76;20412;-90
2023/03/12 09:27:30;;;;;;;;;;;10.40;12.04;;;;;;2670711;76;20891;-90
2023/03/12 09:30:58;;;;;;;;;;;10.54;12.07;;;;;;2670540;76;20429;-90
2023/03/12 09:34:26;;;;;;;;;;;10.18;11.33;;;;;;2670153;76;20464;-90
2023/03/12 09:37:54;;;;;;;;;;;9.82;11.93;;;;;;2669203;76;20460;-90
2023/03/12 09:41:22;;;;;;;;;;;9.00;9.95;;;;;;2670415;76;20457;-90
2023/03/12 09:44:50;;;;;;;;;;;8.64;11.68;;;;;;2670039;76;20602;-91
2023/03/12 09:48:22;;;;;;;;;;;8.74;13.07;;;;;;2670792;76;20455;-91
2023/03/12 09:51:52;;;;;;;;;;;8.76;13.34;;;;;;2670003;76;20433;-91
2023/03/12 09:55:20;;;;;;;;;;;8.98;13.25;;;;;;2670476;76;20462;-90
2023/03/12 09:58:49;;;;;;;;;;;8.82;12.75;;;;;;2668266;76;20305;-90
2023/03/12 10:02:17;;;;;;;;;;;9.07;13.37;;;;;;2668162;76;20462;-90
2023/03/12 10:05:45;;;;;;;;;;;9.38;13.81;;;;;;2669500;76;20436;-88
2023/03/12 10:09:13;;;;;;;;;;;9.52;13.88;;;;;;2668752;76;20451;-91
2023/03/12 10:12:41;;;;;;;;;;;9.30;13.61;;;;;;2671196;76;20418;-90
2023/03/12 10:16:09;;;;;;;;;;;9.41;13.61;;;;;;2669875;76;20438;-90
2023/03/12 10:19:37;;;;;;;;;;;9.54;13.42;;;;;;2669390;76;20993;-90
2023/03/12 10:23:06;;;;;;;;;;;9.74;13.45;;;;;;2669440;76;20884;-90
2023/03/12 10:26:34;;;;;;;;;;;9.65;13.18;;;;;;2668334;76;20965;-91
2023/03/12 10:30:02;;;;;;;;;;;9.97;14.13;;;;;;2668598;76;20941;-90
2023/03/12 10:33:30;;;;;;;;;;;9.74;13.80;;;;;;2668957;76;20421;-90
2023/03/12 10:36:58;;;;;;;;;;;9.46;14.26;;;;;;2669501;76;20419;-92
2023/03/12 10:40:26;;;;;;;;;;;9.30;14.45;;;;;;2669410;76;20429;-92
2023/03/12 10:43:57;;;;;;;;;;;9.16;15.05;;;;;;2668855;76;20438;-92
2023/03/12 10:47:25;;;;;;;;;;;8.70;14.31;;;;;;2667744;76;20928;-91
2023/03/12 10:50:53;;;;;;;;;;;8.50;14.83;;;;;;2668560;76;20897;-91
2023/03/12 10:54:22;;;;;;;;;;;8.31;15.11;;;;;;2669401;76;20974;-91
2023/03/12 10:57:52;;;;;;;;;;;8.31;15.80;;;;;;2670095;76;20405;-91
2023/03/12 11:01:20;;;;;;;;;;;8.34;15.58;;;;;;2664974;76;20440;-91
2023/03/12 11:04:48;;;;;;;;;;;8.44;15.80;;;;;;2668351;76;20754;-91
2023/03/12 11:08:16;;;;;;;;;;;8.67;15.71;;;;;;2667843;76;20619;-90
2023/03/12 11:11:46;;;;;;;;;;;8.82;15.13;;;;;;2667761;76;20417;-91
2023/03/12 11:15:14;;;;;;;;;;;9.04;15.15;;;;;;2667005;76;20431;-91
2023/03/12 11:18:42;;;;;;;;;;;9.00;15.32;;;;;;2667634;76;20456;-91
2023/03/12 11:22:10;;;;;;;;;;;8.90;15.67;;;;;;2668281;76;21129;-92
2023/03/12 11:25:38;;;;;;;;;;;8.90;16.07;;;;;;2668234;76;20440;-91
2023/03/12 11:29:06;;;;;;;;;;;8.86;15.79;;;;;;2667267;76;20453;-90
2023/03/12 11:32:34;;;;;;;;;;;9.17;16.35;;;;;;2663927;76;20433;-90
2023/03/12 11:36:03;;;;;;;;;;;9.46;16.02;;;;;;2667040;76;20438;-91
2023/03/12 11:39:31;;;;;;;;;;;10.06;15.90;;;;;;2667981;76;20407;-91
2023/03/12 11:42:59;;;;;;;;;;;10.56;15.42;;;;;;2666304;76;20442;-91
2023/03/12 11:46:30;;;;;;;;;;;10.51;15.29;;;;;;2665985;76;21537;-91
2023/03/12 11:50:10;;;;;;;;;;;10.43;15.74;;;;;;2665601;76;20449;-90
2023/03/12 11:53:38;;;;;;;;;;;10.29;15.33;;;;;;2667364;76;20551;-90
2023/03/12 11:57:06;;;;;;;;;;;10.41;15.71;;;;;;2668787;76;20778;-89
2023/03/12 12:00:34;;;;;;;;;;;10.00;15.74;;;;;;2669309;76;20431;-91
2023/03/12 12:04:06;;;;;;;;;;;10.13;16.49;;;;;;2668513;76;20740;-90
2023/03/12 12:07:34;;;;;;;;;;;10.30;15.71;;;;;;2669679;76;20325;-90
2023/03/12 12:11:05;;;;;;;;;;;10.00;16.04;;;;;;2670830;76;20672;-90
2023/03/12 12:14:33;;;;;;;;;;;9.96;16.42;;;;;;2670736;76;20316;-90
2023/03/12 12:18:01;;;;;;;;;;;10.00;16.91;;;;;;2668931;76;20432;-91
2023/03/12 12:21:29;;;;;;;;;;;10.25;16.48;;;;;;2668417;76;20434;-90
2023/03/12 12:28:34;;;;;;;;;;;10.70;17.04;;;;;;2668937;76;20436;-90
2023/03/12 12:32:02;;;;;;;;;;;10.77;17.16;;;;;;2667208;76;20461;-90
2023/03/12 12:35:30;;;;;;;;;;;10.92;16.51;;;;;;2668492;76;20476;-91
2023/03/12 12:39:00;;;;;;;;;;;10.67;16.67;;;;;;2669017;76;20428;-91
2023/03/12 12:42:28;;;;;;;;;;;10.50;17.32;;;;;;2670061;76;20421;-91
2023/03/12 12:45:56;;;;;;;;;;;10.41;17.63;;;;;;2670129;76;20437;-90
2023/03/12 12:49:24;;;;;;;;;;;10.23;17.70;;;;;;2668988;76;20399;-90
2023/03/12 12:52:52;;;;;;;;;;;10.16;18.00;;;;;;2670171;76;20452;-91
2023/03/12 12:56:20;;;;;;;;;;;10.42;18.09;;;;;;2670189;76;20425;-91
2023/03/12 12:59:49;;;;;;;;;;;10.52;17.33;;;;;;2669294;76;20438;-91
2023/03/12 13:03:17;;;;;;;;;;;11.20;17.90;;;;;;2669951;76;20305;-90
2023/03/12 13:06:45;;;;;;;;;;;12.89;16.87;;;;;;2668846;76;20432;-89
2023/03/12 13:10:13;;;;;;;;;;;12.88;15.66;;;;;;2669489;76;20432;-90
2023/03/12 13:13:41;;;;;;;;;;;13.16;16.45;;;;;;2670990;76;20405;-91
2023/03/12 13:17:10;;;;;;;;;;;13.76;16.31;;;;;;2669125;76;20821;-89
2023/03/12 13:20:38;;;;;;;;;;;13.83;15.36;;;;;;2668564;76;20417;-91
2023/03/12 13:24:06;;;;;;;;;;;12.99;15.95;;;;;;2669516;76;20457;-90
2023/03/12 13:27:36;;;;;;;;;;;12.11;16.04;;;;;;2670058;76;20433;-91
2023/03/12 13:31:04;;;;;;;;;;;11.16;15.85;;;;;;2668646;76;20449;-92
2023/03/12 13:34:33;;;;;;;;;;;11.25;18.51;;;;;;2669720;76;20473;-93
2023/03/12 13:38:01;;;;;;;;;;;11.12;17.23;;;;;;2669877;76;20418;-90
2023/03/12 13:41:29;;;;;;;;;;;10.79;17.46;;;;;;2670684;76;20311;-91
2023/03/12 13:44:57;;;;;;;;;;;10.72;18.55;;;;;;2669749;76;20422;-91
2023/03/12 13:48:25;;;;;;;;;;;11.01;18.80;;;;;;2670342;76;20542;-90
2023/03/12 13:51:54;;;;;;;;;;;11.75;18.65;;;;;;2669219;76;20438;-90
2023/03/12 13:55:22;;;;;;;;;;;12.26;17.95;;;;;;2668655;76;20452;-90
2023/03/12 13:58:50;;;;;;;;;;;12.91;17.91;;;;;;2669076;76;20970;-90
2023/03/12 14:02:18;;;;;;;;;;;13.49;17.06;;;;;;2675009;76;20429;-96
2023/03/12 14:05:48;;;;;;;;;;;13.63;16.24;;;;;;2675083;76;20387;-96
2023/03/12 14:09:22;;;;;;;;;;;13.52;16.38;;;;;;2680674;76;20477;-96
2023/03/12 14:12:47;;;;;;;;;;;13.10;16.55;;;;;;2681903;76;20404;-96
2023/03/12 14:16:15;;;;;;;;;;;12.29;16.32;;;;;;2681893;76;20419;-96
2023/03/12 14:19:49;;;;;;;;;;;12.25;17.82;;;;;;2681866;76;20261;-95
2023/03/12 14:23:18;;;;;;;;;;;12.55;17.76;;;;;;2681750;76;20406;-96
2023/03/12 14:26:46;;;;;;;;;;;13.14;16.55;;;;;;2681435;76;20441;-95
2023/03/12 14:30:17;;;;;;;;;;;13.23;16.67;;;;;;2681419;76;20276;-93
2023/03/12 14:33:45;;;;;;;;;;;12.88;15.89;;;;;;2679977;76;20402;-94
2023/03/12 14:37:16;;;;;;;;;;;12.74;16.80;;;;;;2681559;76;20402;-95
2023/03/12 14:40:47;;;;;;;;;;;12.66;16.82;;;;;;2683707;76;20267;-96
2023/03/12 14:44:16;;;;;;;;;;;12.57;16.47;;;;;;2683405;76;21514;-96
2023/03/12 14:47:49;;;;;;;;;;;12.66;15.06;;;;;;2686051;76;20250;-96
2023/03/12 14:51:40;;;;;;;;;;;12.62;14.20;;;;;;2687960;76;20246;-96
2023/03/12 14:55:30;;;;;;;;;;;12.78;13.53;;;;;;2685233;76;20397;-96
2023/03/12 14:59:12;;;;;;;;;;;12.36;13.34;;;;;;2685999;76;20406;-96
2023/03/12 15:02:49;;;;;;;;;;;12.46;14.00;;;;;;2686650;76;20239;-96
2023/03/12 15:06:20;;;;;;;;;;;12.23;12.95;;;;;;2684703;76;20435;-96
2023/03/12 15:09:51;;;;;;;;;;;12.56;12.51;;;;;;2684138;76;20418;-96
2023/03/12 15:13:20;;;;;;;;;;;12.45;11.80;;;;;;2684534;76;20411;-96
2023/03/12 15:16:54;;;;;;;;;;;12.22;12.02;;;;;;2683154;76;20420;-96
2023/03/12 15:20:22;;;;;;;;;;;12.10;12.68;;;;;;2682686;76;20482;-95
2023/03/12 15:23:52;;;;;;;;;;;11.61;13.36;;;;;;2681824;76;20436;-96
2023/03/12 15:27:23;;;;;;;;;;;11.84;13.93;;;;;;2680340;76;20237;-95
2023/03/12 15:30:54;;;;;;;;;;;11.58;13.71;;;;;;2679096;76;20630;-95
2023/03/12 15:34:23;;;;;;;;;;;11.49;14.29;;;;;;2679182;76;20459;-94
2023/03/12 15:37:52;;;;;;;;;;;11.19;14.65;;;;;;2678986;76;20291;-95
2023/03/12 15:41:23;;;;;;;;;;;11.46;15.24;;;;;;2676157;76;20430;-96
2023/03/12 15:44:55;;;;;;;;;;;11.33;15.32;;;;;;2673743;76;20433;-96
2023/03/12 15:48:23;;;;;;;;;;;11.22;15.73;;;;;;2676583;76;20452;-93
2023/03/12 15:51:52;;;;;;;;;;;11.24;16.10;;;;;;2668099;76;20429;-93
2023/03/12 15:55:20;;;;;;;;;;;11.24;16.35;;;;;;2668022;76;20474;-91
2023/03/12 15:58:54;;;;;;;;;;;11.13;16.53;;;;;;2668278;76;20465;-91
2023/03/12 16:02:21;;;;;;;;;;;11.05;17.00;;;;;;2668478;76;20449;-90
2023/03/12 16:05:49;;;;;;;;;;;10.97;17.44;;;;;;2669506;76;20446;-93
2023/03/12 16:09:19;;;;;;;;;;;10.83;17.88;;;;;;2670418;76;20431;-94
2023/03/12 16:12:49;;;;;;;;;;;10.68;18.62;;;;;;2669749;76;20398;-92
2023/03/12 16:16:17;;;;;;;;;;;10.62;19.09;;;;;;2668377;76;20424;-93
2023/03/12 16:19:48;;;;;;;;;;;10.55;19.20;;;;;;2673445;76;20585;-92
2023/03/12 16:23:21;;;;;;;;;;;10.40;19.83;;;;;;2680301;76;20308;-92
2023/03/12 16:26:48;;;;;;;;;;;10.39;20.01;;;;;;2669171;76;20455;-91
2023/03/12 16:30:18;;;;;;;;;;;10.34;20.13;;;;;;2669209;76;20458;-91
2023/03/12 16:33:46;;;;;;;;;;;10.27;19.60;;;;;;2667177;76;20731;-93
2023/03/12 16:37:20;;;;;;;;;;;10.45;19.56;;;;;;2669117;76;20822;-92
2023/03/12 16:40:45;;;;;;;;;;;10.55;19.14;;;;;;2668350;76;20434;-92
2023/03/12 16:44:15;;;;;;;;;;;10.45;18.36;;;;;;2669280;76;20971;-91
2023/03/12 16:47:46;;;;;;;;;;;10.38;18.38;;;;;;2667492;76;20502;-92
2023/03/12 16:51:29;;;;;;;;;;;10.35;18.31;;;;;;2667584;76;20426;-91
2023/03/12 16:54:47;;;;;;;;;;;10.27;18.12;;;;;;2667875;76;21525;-92
2023/03/12 16:58:16;;;;;;;;;;;10.19;17.84;;;;;;2668864;76;20945;-92
2023/03/12 17:01:46;;;;;;;;;;;10.03;17.39;;;;;;2668431;76;20449;-93
2023/03/12 17:05:17;;;;;;;;;;;9.96;17.36;;;;;;2667125;76;20533;-94
2023/03/12 17:09:02;;;;;;;;;;;9.67;17.16;;;;;;2670040;76;21058;-93
2023/03/12 17:12:29;;;;;;;;;;;9.63;17.06;;;;;;2668514;76;20413;-90
2023/03/12 17:15:57;;;;;;;;;;;9.69;17.06;;;;;;2669497;76;20415;-92
2023/03/12 17:19:34;;;;;;;;;;;9.64;17.06;;;;;;2668529;76;20409;-92
2023/03/12 17:22:59;;;;;;;;;;;9.62;17.38;;;;;;2669069;76;20445;-92
2023/03/12 17:26:37;;;;;;;;;;;9.55;17.28;;;;;;2668577;76;20353;-91
2023/03/12 17:30:02;;;;;;;;;;;9.54;17.54;;;;;;2666888;76;20469;-90
2023/03/12 17:33:30;;;;;;;;;;;9.47;17.35;;;;;;2666571;76;20500;-90
2023/03/12 17:40:36;;;;;;;;;;;9.19;17.54;;;;;;2670130;76;20511;-95
2023/03/12 17:44:05;;;;;;;;;;;9.05;17.74;;;;;;2677878;76;20421;-95
2023/03/12 17:47:37;;;;;;;;;;;9.01;17.86;;;;;;2680529;76;20321;-94
2023/03/12 17:51:06;;;;;;;;;;;8.90;17.90;;;;;;2671401;76;20490;-94
2023/03/12 17:54:34;;;;;;;;;;;8.80;17.86;;;;;;2670033;76;20382;-89
2023/03/12 17:58:04;;;;;;;;;;;8.72;17.96;;;;;;2662651;76;20874;-89
2023/03/12 18:01:32;;;;;;;;;;;8.65;18.00;;;;;;2667044;76;20473;-91
2023/03/12 18:05:03;;;;;;;;;;;8.60;18.48;;;;;;2667830;76;20466;-91
2023/03/12 18:08:31;;;;;;;;;;;8.57;18.44;;;;;;2666477;76;20974;-91
2023/03/12 18:12:01;;;;;;;;;;;8.53;18.41;;;;;;2667396;76;20473;-90
2023/03/12 18:15:31;;;;;;;;;;;8.51;18.25;;;;;;2666245;76;20963;-91
2023/03/12 18:19:01;;;;;;;;;;;8.43;18.33;;;;;;2667941;76;20493;-91
2023/03/12 18:22:30;;;;;;;;;;;8.37;18.28;;;;;;2668373;76;20640;-92
2023/03/12 18:26:00;;;;;;;;;;;8.33;18.38;;;;;;2667765;76;20454;-92
2023/03/12 18:29:30;;;;;;;;;;;8.29;18.70;;;;;;2667077;76;20409;-90
2023/03/12 18:32:58;;;;;;;;;;;8.28;18.93;;;;;;2667702;76;20690;-91
2023/03/12 18:36:26;;;;;;;;;;;8.23;18.93;;;;;;2667126;76;20880;-91
2023/03/12 18:39:57;;;;;;;;;;;8.23;19.35;;;;;;2668534;76;20470;-92
2023/03/12 18:43:28;;;;;;;;;;;8.26;19.07;;;;;;2668731;76;21281;-91
2023/03/12 18:46:56;;;;;;;;;;;8.20;19.13;;;;;;2667333;76;20439;-90
2023/03/12 18:50:24;;;;;;;;;;;8.15;19.05;;;;;;2668019;76;20479;-92
2023/03/12 18:53:52;;;;;;;;;;;8.15;19.37;;;;;;2666961;76;20799;-91
2023/03/12 18:57:23;;;;;;;;;;;8.17;19.38;;;;;;2668445;76;20479;-92
2023/03/12 19:00:51;;;;;;;;;;;8.14;19.43;;;;;;2668047;76;20443;-91
2023/03/12 19:04:19;;;;;;;;;;;8.11;19.47;;;;;;2666821;76;20497;-92
2023/03/12 19:07:52;;;;;;;;;;;8.07;19.44;;;;;;2666398;76;20493;-92
2023/03/12 19:11:21;;;;;;;;;;;8.08;19.80;;;;;;2666534;76;20422;-90
2023/03/12 19:14:49;;;;;;;;;;;8.07;19.63;;;;;;2665435;76;20414;-90
2023/03/12 19:18:17;;;;;;;;;;;8.03;19.75;;;;;;2667866;76;20468;-90
2023/03/12 19:21:45;;;;;;;;;;;8.03;19.86;;;;;;2667651;76;20443;-90
2023/03/12 19:25:14;;;;;;;;;;;8.03;19.89;;;;;;2668268;76;20914;-94
2023/03/12 19:28:42;;;;;;;;;;;7.96;19.95;;;;;;2667818;76;20609;-94
2023/03/12 19:32:10;;;;;;;;;;;8.02;20.06;;;;;;2669812;76;20950;-91
2023/03/12 19:35:39;;;;;;;;;;;8.04;19.96;;;;;;2668353;76;20448;-91
2023/03/12 19:39:07;;;;;;;;;;;7.96;20.10;;;;;;2665476;76;20426;-92
2023/03/12 19:42:35;;;;;;;;;;;7.98;20.44;;;;;;2667061;76;20526;-92
2023/03/12 19:46:03;;;;;;;;;;;7.93;20.21;;;;;;2665712;76;20451;-92
2023/03/12 19:49:34;;;;;;;;;;;7.96;20.21;;;;;;2667418;76;20781;-91
2023/03/12 19:53:04;;;;;;;;;;;7.91;20.22;;;;;;2666767;76;20421;-93
2023/03/12 19:56:32;;;;;;;;;;;7.92;20.26;;;;;;2665157;76;20527;-91
2023/03/12 20:00:00;;;;;;;;;;;7.87;20.23;;;;;;2664777;76;20408;-92
2023/03/12 20:07:32;;;;;;;;;;;7.92;20.48;;;;;;2667242;76;20454;-92
2023/03/12 20:18:27;;;;;;;;;;;8.12;21.40;;;;;;2668343;76;20430;-92
2023/03/12 20:22:29;;;;;;;;;;;;;;;;;;;;;
2023/03/12 20:30:04;;;;;;;;;;;8.41;20.79;;;;;;2669439;76;20421;-92
2023/03/12 20:33:36;;;;;;;;;;;8.43;20.92;;;;;;2670445;76;20486;-92
2023/03/12 20:40:58;;;;;;;;;;;8.49;20.97;;;;;;2668827;76;20475;-91
2023/03/12 20:48:16;;;;;;;;;;;8.51;20.70;;;;;;2666931;76;20414;-91
2023/03/12 20:51:45;;;;;;;;;;;8.39;20.33;;;;;;2667580;76;20484;-91
2023/03/12 20:55:15;;;;;;;;;;;8.32;20.22;;;;;;2666186;76;20420;-91
2023/03/12 20:58:46;;;;;;;;;;;8.24;20.39;;;;;;2666892;76;20474;-92
2023/03/12 21:02:17;;;;;;;;;;;8.23;20.56;;;;;;2666115;76;20766;-91
2023/03/12 21:05:58;;;;;;;;;;;8.23;20.73;;;;;;2669666;76;20496;-91
2023/03/12 21:09:37;;;;;;;;;;;8.26;20.65;;;;;;2668029;76;20448;-91